Las Vegas, Nevada
Traffic Map
Current Weather Conditions
Las Vegas, Nevada
Broken Clouds
Broken Clouds
40°
Feels Like: 40°
Wind Chill: 40° Ceiling: 25000
Heat Index: 40° Visibility: 10mi
Dew Point: 20° Wind: 3mph
Humidity: 45% Direction: 290° (WNW)
Pressure: 30.34in Gusts: 0mph
Raw Report DataKLAS 140956Z 29003KT 10SM BKN250 04/M07 A3034 RMK AO2 SLP272 T00441067
Traffic Incident Summary
Active as of:
Severity:
Category:
InformationThere was an issue retrieving the traffic information for this location. Please try a different location or try again shortly.
Advertisements